sensor_id;sensor_type;location;lat;lon;timestamp;P1;durP1;ratioP1;P2;durP2;ratioP2
9115;SDS011;4593;53.652;10.168;2023-04-25T00:02:17;3.30;;;2.93;;
9115;SDS011;4593;53.652;10.168;2023-04-25T00:04:44;5.33;;;3.80;;
9115;SDS011;4593;53.652;10.168;2023-04-25T00:07:11;6.70;;;3.73;;
9115;SDS011;4593;53.652;10.168;2023-04-25T00:09:37;4.73;;;3.60;;
9115;SDS011;4593;53.652;10.168;2023-04-25T00:12:03;6.77;;;3.87;;
9115;SDS011;4593;53.652;10.168;2023-04-25T00:14:29;5.10;;;3.40;;
9115;SDS011;4593;53.652;10.168;2023-04-25T00:16:55;4.80;;;3.13;;
9115;SDS011;4593;53.652;10.168;2023-04-25T00:19:21;8.63;;;3.63;;
9115;SDS011;4593;53.652;10.168;2023-04-25T00:21:47;7.33;;;3.63;;
9115;SDS011;4593;53.652;10.168;2023-04-25T00:24:13;5.40;;;3.13;;
9115;SDS011;4593;53.652;10.168;2023-04-25T00:26:38;3.57;;;3.17;;
9115;SDS011;4593;53.652;10.168;2023-04-25T00:29:04;10.97;;;3.73;;
9115;SDS011;4593;53.652;10.168;2023-04-25T00:31:30;5.43;;;3.10;;
9115;SDS011;4593;53.652;10.168;2023-04-25T00:33:55;9.57;;;3.87;;
9115;SDS011;4593;53.652;10.168;2023-04-25T00:36:21;10.47;;;3.57;;
9115;SDS011;4593;53.652;10.168;2023-04-25T00:38:47;10.33;;;3.80;;
9115;SDS011;4593;53.652;10.168;2023-04-25T00:41:13;7.30;;;3.47;;
9115;SDS011;4593;53.652;10.168;2023-04-25T00:43:38;19.67;;;3.93;;
9115;SDS011;4593;53.652;10.168;2023-04-25T00:46:05;15.73;;;3.57;;
9115;SDS011;4593;53.652;10.168;2023-04-25T00:48:31;10.67;;;4.07;;
9115;SDS011;4593;53.652;10.168;2023-04-25T00:50:57;5.63;;;3.23;;
9115;SDS011;4593;53.652;10.168;2023-04-25T00:53:24;13.57;;;3.70;;
9115;SDS011;4593;53.652;10.168;2023-04-25T00:55:51;15.97;;;4.07;;
9115;SDS011;4593;53.652;10.168;2023-04-25T00:58:17;14.60;;;3.47;;
9115;SDS011;4593;53.652;10.168;2023-04-25T01:00:48;17.37;;;3.43;;
9115;SDS011;4593;53.652;10.168;2023-04-25T01:03:15;6.27;;;3.10;;
9115;SDS011;4593;53.652;10.168;2023-04-25T01:05:42;13.10;;;3.67;;
9115;SDS011;4593;53.652;10.168;2023-04-25T01:08:08;6.07;;;3.47;;
9115;SDS011;4593;53.652;10.168;2023-04-25T01:10:35;9.23;;;3.07;;
9115;SDS011;4593;53.652;10.168;2023-04-25T01:13:01;9.73;;;2.83;;
9115;SDS011;4593;53.652;10.168;2023-04-25T01:15:27;18.27;;;3.90;;
9115;SDS011;4593;53.652;10.168;2023-04-25T01:17:53;3.63;;;2.70;;
9115;SDS011;4593;53.652;10.168;2023-04-25T01:20:20;19.00;;;4.03;;
9115;SDS011;4593;53.652;10.168;2023-04-25T01:22:48;11.20;;;3.27;;
9115;SDS011;4593;53.652;10.168;2023-04-25T01:25:14;11.00;;;3.43;;
9115;SDS011;4593;53.652;10.168;2023-04-25T01:27:40;14.27;;;3.60;;
9115;SDS011;4593;53.652;10.168;2023-04-25T01:30:06;10.57;;;3.93;;
9115;SDS011;4593;53.652;10.168;2023-04-25T01:32:32;9.87;;;2.80;;
9115;SDS011;4593;53.652;10.168;2023-04-25T01:35:05;6.87;;;3.03;;
9115;SDS011;4593;53.652;10.168;2023-04-25T01:37:44;8.13;;;3.63;;
9115;SDS011;4593;53.652;10.168;2023-04-25T01:40:10;7.30;;;3.47;;
9115;SDS011;4593;53.652;10.168;2023-04-25T01:42:41;8.27;;;3.40;;
9115;SDS011;4593;53.652;10.168;2023-04-25T01:45:08;6.70;;;3.23;;
9115;SDS011;4593;53.652;10.168;2023-04-25T01:47:36;15.47;;;4.23;;
9115;SDS011;4593;53.652;10.168;2023-04-25T01:50:05;5.27;;;2.97;;
9115;SDS011;4593;53.652;10.168;2023-04-25T01:52:32;11.57;;;3.57;;
9115;SDS011;4593;53.652;10.168;2023-04-25T01:54:59;15.10;;;3.67;;
9115;SDS011;4593;53.652;10.168;2023-04-25T01:57:26;11.17;;;3.07;;
9115;SDS011;4593;53.652;10.168;2023-04-25T01:59:53;11.40;;;3.07;;
9115;SDS011;4593;53.652;10.168;2023-04-25T02:02:25;8.03;;;3.43;;
9115;SDS011;4593;53.652;10.168;2023-04-25T02:04:51;7.43;;;3.30;;
9115;SDS011;4593;53.652;10.168;2023-04-25T02:07:17;15.67;;;3.60;;
9115;SDS011;4593;53.652;10.168;2023-04-25T02:09:42;6.13;;;3.13;;
9115;SDS011;4593;53.652;10.168;2023-04-25T02:12:09;20.43;;;4.67;;
9115;SDS011;4593;53.652;10.168;2023-04-25T02:14:35;9.60;;;3.60;;
9115;SDS011;4593;53.652;10.168;2023-04-25T02:17:01;6.30;;;3.43;;
9115;SDS011;4593;53.652;10.168;2023-04-25T02:19:27;14.40;;;3.70;;
9115;SDS011;4593;53.652;10.168;2023-04-25T02:21:52;12.50;;;3.07;;
9115;SDS011;4593;53.652;10.168;2023-04-25T02:24:18;10.20;;;2.67;;
9115;SDS011;4593;53.652;10.168;2023-04-25T02:26:44;16.60;;;3.57;;
9115;SDS011;4593;53.652;10.168;2023-04-25T02:29:11;8.80;;;3.10;;
9115;SDS011;4593;53.652;10.168;2023-04-25T02:31:37;10.00;;;3.10;;
9115;SDS011;4593;53.652;10.168;2023-04-25T02:34:03;12.60;;;3.90;;
9115;SDS011;4593;53.652;10.168;2023-04-25T02:36:29;6.03;;;2.90;;
9115;SDS011;4593;53.652;10.168;2023-04-25T02:38:57;11.90;;;3.27;;
9115;SDS011;4593;53.652;10.168;2023-04-25T02:41:22;9.50;;;3.30;;
9115;SDS011;4593;53.652;10.168;2023-04-25T02:43:48;6.23;;;2.80;;
9115;SDS011;4593;53.652;10.168;2023-04-25T02:46:14;5.17;;;3.73;;
9115;SDS011;4593;53.652;10.168;2023-04-25T02:48:39;11.80;;;3.03;;
9115;SDS011;4593;53.652;10.168;2023-04-25T02:51:05;8.57;;;3.03;;
9115;SDS011;4593;53.652;10.168;2023-04-25T02:53:31;4.93;;;3.10;;
9115;SDS011;4593;53.652;10.168;2023-04-25T02:55:56;6.37;;;3.70;;
9115;SDS011;4593;53.652;10.168;2023-04-25T02:58:24;13.20;;;3.50;;
9115;SDS011;4593;53.652;10.168;2023-04-25T03:00:49;5.37;;;3.10;;
9115;SDS011;4593;53.652;10.168;2023-04-25T03:03:15;15.37;;;3.23;;
9115;SDS011;4593;53.652;10.168;2023-04-25T03:05:43;11.63;;;3.30;;
9115;SDS011;4593;53.652;10.168;2023-04-25T03:08:09;13.53;;;4.23;;
9115;SDS011;4593;53.652;10.168;2023-04-25T03:10:34;6.23;;;2.60;;
9115;SDS011;4593;53.652;10.168;2023-04-25T03:13:00;4.77;;;2.93;;
9115;SDS011;4593;53.652;10.168;2023-04-25T03:15:26;4.53;;;3.00;;
9115;SDS011;4593;53.652;10.168;2023-04-25T03:17:51;9.93;;;2.87;;
9115;SDS011;4593;53.652;10.168;2023-04-25T03:20:17;17.00;;;3.80;;
9115;SDS011;4593;53.652;10.168;2023-04-25T03:22:43;12.73;;;2.83;;
9115;SDS011;4593;53.652;10.168;2023-04-25T03:25:09;13.20;;;3.17;;
9115;SDS011;4593;53.652;10.168;2023-04-25T03:27:35;5.43;;;3.27;;
9115;SDS011;4593;53.652;10.168;2023-04-25T03:30:01;11.57;;;3.57;;
9115;SDS011;4593;53.652;10.168;2023-04-25T03:32:26;4.97;;;3.13;;
9115;SDS011;4593;53.652;10.168;2023-04-25T03:34:52;8.17;;;3.33;;
9115;SDS011;4593;53.652;10.168;2023-04-25T03:37:18;11.87;;;3.13;;
9115;SDS011;4593;53.652;10.168;2023-04-25T03:39:43;15.97;;;3.60;;
9115;SDS011;4593;53.652;10.168;2023-04-25T03:42:09;9.57;;;2.87;;
9115;SDS011;4593;53.652;10.168;2023-04-25T03:44:34;15.30;;;4.20;;
9115;SDS011;4593;53.652;10.168;2023-04-25T03:47:00;9.33;;;3.37;;
9115;SDS011;4593;53.652;10.168;2023-04-25T03:49:26;14.33;;;3.43;;
9115;SDS011;4593;53.652;10.168;2023-04-25T03:51:51;12.83;;;3.20;;
9115;SDS011;4593;53.652;10.168;2023-04-25T03:54:17;3.20;;;2.33;;
9115;SDS011;4593;53.652;10.168;2023-04-25T03:56:43;7.60;;;2.50;;
9115;SDS011;4593;53.652;10.168;2023-04-25T03:59:08;5.13;;;2.83;;
9115;SDS011;4593;53.652;10.168;2023-04-25T04:01:34;8.83;;;3.30;;
9115;SDS011;4593;53.652;10.168;2023-04-25T04:04:00;6.93;;;2.50;;
9115;SDS011;4593;53.652;10.168;2023-04-25T04:06:26;17.03;;;4.03;;
9115;SDS011;4593;53.652;10.168;2023-04-25T04:08:51;7.53;;;2.93;;
9115;SDS011;4593;53.652;10.168;2023-04-25T04:11:17;6.00;;;2.93;;
9115;SDS011;4593;53.652;10.168;2023-04-25T04:13:43;6.67;;;2.93;;
9115;SDS011;4593;53.652;10.168;2023-04-25T04:16:08;7.47;;;3.43;;
9115;SDS011;4593;53.652;10.168;2023-04-25T04:18:34;12.23;;;3.60;;
9115;SDS011;4593;53.652;10.168;2023-04-25T04:21:00;7.93;;;3.10;;
9115;SDS011;4593;53.652;10.168;2023-04-25T04:23:26;9.90;;;3.17;;
9115;SDS011;4593;53.652;10.168;2023-04-25T04:25:53;5.47;;;2.50;;
9115;SDS011;4593;53.652;10.168;2023-04-25T04:28:21;8.97;;;3.30;;
9115;SDS011;4593;53.652;10.168;2023-04-25T04:30:47;5.07;;;2.80;;
9115;SDS011;4593;53.652;10.168;2023-04-25T04:33:13;4.13;;;2.73;;
9115;SDS011;4593;53.652;10.168;2023-04-25T04:35:40;5.57;;;3.20;;
9115;SDS011;4593;53.652;10.168;2023-04-25T04:38:06;8.90;;;2.60;;
9115;SDS011;4593;53.652;10.168;2023-04-25T04:40:32;4.87;;;2.47;;
9115;SDS011;4593;53.652;10.168;2023-04-25T04:42:58;15.23;;;2.93;;
9115;SDS011;4593;53.652;10.168;2023-04-25T04:45:23;9.60;;;3.00;;
9115;SDS011;4593;53.652;10.168;2023-04-25T04:47:49;5.70;;;2.57;;
9115;SDS011;4593;53.652;10.168;2023-04-25T04:50:15;10.60;;;2.47;;
9115;SDS011;4593;53.652;10.168;2023-04-25T04:52:41;6.80;;;2.83;;
9115;SDS011;4593;53.652;10.168;2023-04-25T04:55:07;5.60;;;2.73;;
9115;SDS011;4593;53.652;10.168;2023-04-25T04:57:34;13.73;;;3.37;;
9115;SDS011;4593;53.652;10.168;2023-04-25T05:00:00;8.30;;;2.50;;
9115;SDS011;4593;53.652;10.168;2023-04-25T05:02:26;7.00;;;3.13;;
9115;SDS011;4593;53.652;10.168;2023-04-25T05:04:52;19.73;;;3.07;;
9115;SDS011;4593;53.652;10.168;2023-04-25T05:07:18;14.77;;;3.13;;
9115;SDS011;4593;53.652;10.168;2023-04-25T05:09:44;8.30;;;3.30;;
9115;SDS011;4593;53.652;10.168;2023-04-25T05:12:10;7.73;;;3.27;;
9115;SDS011;4593;53.652;10.168;2023-04-25T05:14:35;6.87;;;2.60;;
9115;SDS011;4593;53.652;10.168;2023-04-25T05:17:01;8.30;;;2.83;;
9115;SDS011;4593;53.652;10.168;2023-04-25T05:19:29;9.90;;;2.97;;
9115;SDS011;4593;53.652;10.168;2023-04-25T05:21:55;5.53;;;3.13;;
9115;SDS011;4593;53.652;10.168;2023-04-25T05:24:21;7.63;;;2.60;;
9115;SDS011;4593;53.652;10.168;2023-04-25T05:26:46;10.10;;;2.70;;
9115;SDS011;4593;53.652;10.168;2023-04-25T05:29:12;10.37;;;2.93;;
9115;SDS011;4593;53.652;10.168;2023-04-25T05:31:38;9.20;;;3.17;;
9115;SDS011;4593;53.652;10.168;2023-04-25T05:34:03;6.83;;;2.90;;
9115;SDS011;4593;53.652;10.168;2023-04-25T05:36:29;6.87;;;3.23;;
9115;SDS011;4593;53.652;10.168;2023-04-25T05:38:57;11.97;;;3.20;;
9115;SDS011;4593;53.652;10.168;2023-04-25T05:41:23;3.73;;;2.43;;
9115;SDS011;4593;53.652;10.168;2023-04-25T05:43:48;5.33;;;3.07;;
9115;SDS011;4593;53.652;10.168;2023-04-25T05:46:14;7.83;;;2.40;;
9115;SDS011;4593;53.652;10.168;2023-04-25T05:48:42;3.60;;;2.60;;
9115;SDS011;4593;53.652;10.168;2023-04-25T05:51:08;6.90;;;3.23;;
9115;SDS011;4593;53.652;10.168;2023-04-25T05:53:33;9.70;;;2.93;;
9115;SDS011;4593;53.652;10.168;2023-04-25T05:55:59;5.87;;;2.90;;
9115;SDS011;4593;53.652;10.168;2023-04-25T05:58:25;4.57;;;2.40;;
9115;SDS011;4593;53.652;10.168;2023-04-25T06:00:51;5.07;;;2.30;;
9115;SDS011;4593;53.652;10.168;2023-04-25T06:03:16;13.73;;;2.70;;
9115;SDS011;4593;53.652;10.168;2023-04-25T06:05:42;6.60;;;2.67;;
9115;SDS011;4593;53.652;10.168;2023-04-25T06:08:08;2.63;;;2.13;;
9115;SDS011;4593;53.652;10.168;2023-04-25T06:10:35;6.80;;;2.50;;
9115;SDS011;4593;53.652;10.168;2023-04-25T06:13:02;3.60;;;2.50;;
9115;SDS011;4593;53.652;10.168;2023-04-25T06:15:28;6.00;;;2.80;;
9115;SDS011;4593;53.652;10.168;2023-04-25T06:17:53;3.87;;;2.80;;
9115;SDS011;4593;53.652;10.168;2023-04-25T06:20:19;5.93;;;3.10;;
9115;SDS011;4593;53.652;10.168;2023-04-25T06:22:48;3.00;;;2.17;;
9115;SDS011;4593;53.652;10.168;2023-04-25T06:25:14;4.47;;;2.60;;
9115;SDS011;4593;53.652;10.168;2023-04-25T06:27:40;5.90;;;2.57;;
9115;SDS011;4593;53.652;10.168;2023-04-25T06:30:06;2.10;;;2.00;;
9115;SDS011;4593;53.652;10.168;2023-04-25T06:32:32;4.13;;;3.17;;
9115;SDS011;4593;53.652;10.168;2023-04-25T06:34:59;9.20;;;2.93;;
9115;SDS011;4593;53.652;10.168;2023-04-25T06:37:25;4.47;;;2.33;;
9115;SDS011;4593;53.652;10.168;2023-04-25T06:39:51;8.07;;;3.27;;
9115;SDS011;4593;53.652;10.168;2023-04-25T06:42:16;7.07;;;2.87;;
9115;SDS011;4593;53.652;10.168;2023-04-25T06:44:42;11.77;;;2.97;;
9115;SDS011;4593;53.652;10.168;2023-04-25T06:47:08;7.63;;;2.20;;
9115;SDS011;4593;53.652;10.168;2023-04-25T06:49:33;10.27;;;2.83;;
9115;SDS011;4593;53.652;10.168;2023-04-25T06:51:59;13.73;;;3.73;;
9115;SDS011;4593;53.652;10.168;2023-04-25T06:54:24;3.40;;;2.60;;
9115;SDS011;4593;53.652;10.168;2023-04-25T06:56:52;8.27;;;2.93;;
9115;SDS011;4593;53.652;10.168;2023-04-25T06:59:18;15.63;;;3.23;;
9115;SDS011;4593;53.652;10.168;2023-04-25T07:01:44;10.60;;;3.43;;
9115;SDS011;4593;53.652;10.168;2023-04-25T07:04:09;4.73;;;3.03;;
9115;SDS011;4593;53.652;10.168;2023-04-25T07:06:35;5.30;;;2.47;;
9115;SDS011;4593;53.652;10.168;2023-04-25T07:09:03;9.87;;;2.83;;
9115;SDS011;4593;53.652;10.168;2023-04-25T07:11:30;11.40;;;2.93;;
9115;SDS011;4593;53.652;10.168;2023-04-25T07:13:55;10.87;;;3.10;;
9115;SDS011;4593;53.652;10.168;2023-04-25T07:16:21;12.63;;;2.80;;
9115;SDS011;4593;53.652;10.168;2023-04-25T07:18:47;5.27;;;2.53;;
9115;SDS011;4593;53.652;10.168;2023-04-25T07:21:14;5.77;;;2.30;;
9115;SDS011;4593;53.652;10.168;2023-04-25T07:23:39;8.07;;;2.60;;
9115;SDS011;4593;53.652;10.168;2023-04-25T07:26:05;6.90;;;2.67;;
9115;SDS011;4593;53.652;10.168;2023-04-25T07:28:31;7.93;;;2.67;;
9115;SDS011;4593;53.652;10.168;2023-04-25T07:30:57;3.90;;;2.43;;
9115;SDS011;4593;53.652;10.168;2023-04-25T07:33:23;12.60;;;2.43;;
9115;SDS011;4593;53.652;10.168;2023-04-25T07:35:48;2.47;;;1.87;;
9115;SDS011;4593;53.652;10.168;2023-04-25T07:38:15;4.73;;;2.07;;
9115;SDS011;4593;53.652;10.168;2023-04-25T07:40:40;17.47;;;2.40;;
9115;SDS011;4593;53.652;10.168;2023-04-25T07:43:06;7.37;;;2.20;;
9115;SDS011;4593;53.652;10.168;2023-04-25T07:45:32;1.87;;;1.77;;
9115;SDS011;4593;53.652;10.168;2023-04-25T07:47:57;5.73;;;2.47;;
9115;SDS011;4593;53.652;10.168;2023-04-25T07:50:23;3.67;;;1.90;;
9115;SDS011;4593;53.652;10.168;2023-04-25T07:52:49;4.30;;;2.27;;
9115;SDS011;4593;53.652;10.168;2023-04-25T07:55:15;7.50;;;2.60;;
9115;SDS011;4593;53.652;10.168;2023-04-25T07:57:41;7.70;;;2.37;;
9115;SDS011;4593;53.652;10.168;2023-04-25T08:00:07;8.10;;;2.60;;
9115;SDS011;4593;53.652;10.168;2023-04-25T08:02:34;4.90;;;1.90;;
9115;SDS011;4593;53.652;10.168;2023-04-25T08:05:01;3.33;;;2.30;;
9115;SDS011;4593;53.652;10.168;2023-04-25T08:07:27;7.13;;;2.60;;
9115;SDS011;4593;53.652;10.168;2023-04-25T08:09:53;6.33;;;2.03;;
9115;SDS011;4593;53.652;10.168;2023-04-25T08:12:19;8.00;;;2.37;;
9115;SDS011;4593;53.652;10.168;2023-04-25T08:14:45;8.23;;;2.23;;
9115;SDS011;4593;53.652;10.168;2023-04-25T08:17:11;3.83;;;1.90;;
9115;SDS011;4593;53.652;10.168;2023-04-25T08:19:36;2.90;;;2.30;;
9115;SDS011;4593;53.652;10.168;2023-04-25T08:22:02;6.17;;;2.60;;
9115;SDS011;4593;53.652;10.168;2023-04-25T08:24:28;5.47;;;2.40;;
9115;SDS011;4593;53.652;10.168;2023-04-25T08:26:54;4.67;;;1.97;;
9115;SDS011;4593;53.652;10.168;2023-04-25T08:29:19;12.23;;;2.60;;
9115;SDS011;4593;53.652;10.168;2023-04-25T08:31:45;3.03;;;2.10;;
9115;SDS011;4593;53.652;10.168;2023-04-25T08:34:11;2.93;;;2.10;;
9115;SDS011;4593;53.652;10.168;2023-04-25T08:36:37;7.27;;;2.13;;
9115;SDS011;4593;53.652;10.168;2023-04-25T08:39:03;5.03;;;2.30;;
9115;SDS011;4593;53.652;10.168;2023-04-25T08:41:29;5.87;;;1.90;;
9115;SDS011;4593;53.652;10.168;2023-04-25T08:43:55;3.03;;;2.00;;
9115;SDS011;4593;53.652;10.168;2023-04-25T08:46:22;4.93;;;1.80;;
9115;SDS011;4593;53.652;10.168;2023-04-25T08:48:48;2.47;;;2.00;;
9115;SDS011;4593;53.652;10.168;2023-04-25T08:51:22;4.63;;;1.93;;
9115;SDS011;4593;53.652;10.168;2023-04-25T08:53:50;5.07;;;2.10;;
9115;SDS011;4593;53.652;10.168;2023-04-25T08:56:16;4.37;;;2.73;;
9115;SDS011;4593;53.652;10.168;2023-04-25T08:58:43;9.70;;;2.40;;
9115;SDS011;4593;53.652;10.168;2023-04-25T09:01:13;2.47;;;1.87;;
9115;SDS011;4593;53.652;10.168;2023-04-25T09:03:39;4.67;;;2.03;;
9115;SDS011;4593;53.652;10.168;2023-04-25T09:06:05;2.97;;;2.13;;
9115;SDS011;4593;53.652;10.168;2023-04-25T09:08:32;12.73;;;2.43;;
9115;SDS011;4593;53.652;10.168;2023-04-25T09:10:57;6.67;;;2.40;;
9115;SDS011;4593;53.652;10.168;2023-04-25T09:13:26;8.43;;;2.93;;
9115;SDS011;4593;53.652;10.168;2023-04-25T09:15:54;7.37;;;2.50;;
9115;SDS011;4593;53.652;10.168;2023-04-25T09:18:27;3.50;;;2.23;;
9115;SDS011;4593;53.652;10.168;2023-04-25T09:20:55;6.70;;;2.40;;
9115;SDS011;4593;53.652;10.168;2023-04-25T09:23:23;5.87;;;2.63;;
9115;SDS011;4593;53.652;10.168;2023-04-25T09:25:52;3.80;;;1.97;;
9115;SDS011;4593;53.652;10.168;2023-04-25T09:28:25;2.57;;;2.37;;
9115;SDS011;4593;53.652;10.168;2023-04-25T09:30:55;3.87;;;2.13;;
9115;SDS011;4593;53.652;10.168;2023-04-25T09:33:26;2.90;;;2.07;;
9115;SDS011;4593;53.652;10.168;2023-04-25T09:38:43;10.17;;;2.40;;
9115;SDS011;4593;53.652;10.168;2023-04-25T09:41:10;5.43;;;2.37;;
9115;SDS011;4593;53.652;10.168;2023-04-25T09:43:36;2.97;;;2.20;;
9115;SDS011;4593;53.652;10.168;2023-04-25T09:46:03;9.30;;;2.13;;
9115;SDS011;4593;53.652;10.168;2023-04-25T09:48:36;4.80;;;2.00;;
9115;SDS011;4593;53.652;10.168;2023-04-25T09:51:14;7.43;;;2.03;;
9115;SDS011;4593;53.652;10.168;2023-04-25T09:53:41;6.43;;;2.70;;
9115;SDS011;4593;53.652;10.168;2023-04-25T09:56:12;5.53;;;2.47;;
9115;SDS011;4593;53.652;10.168;2023-04-25T09:58:39;5.10;;;2.20;;
9115;SDS011;4593;53.652;10.168;2023-04-25T10:01:07;8.37;;;2.20;;
9115;SDS011;4593;53.652;10.168;2023-04-25T10:03:35;3.93;;;1.90;;
9115;SDS011;4593;53.652;10.168;2023-04-25T10:06:07;3.83;;;1.90;;
9115;SDS011;4593;53.652;10.168;2023-04-25T10:08:35;2.70;;;2.00;;
9115;SDS011;4593;53.652;10.168;2023-04-25T10:11:05;6.07;;;2.43;;
9115;SDS011;4593;53.652;10.168;2023-04-25T10:13:33;4.87;;;2.27;;
9115;SDS011;4593;53.652;10.168;2023-04-25T10:16:01;7.33;;;2.13;;
9115;SDS011;4593;53.652;10.168;2023-04-25T10:18:28;6.43;;;2.13;;
9115;SDS011;4593;53.652;10.168;2023-04-25T10:20:55;2.80;;;2.10;;
9115;SDS011;4593;53.652;10.168;2023-04-25T10:23:22;6.30;;;2.30;;
9115;SDS011;4593;53.652;10.168;2023-04-25T10:25:49;2.53;;;1.93;;
9115;SDS011;4593;53.652;10.168;2023-04-25T10:28:16;6.50;;;2.20;;
9115;SDS011;4593;53.652;10.168;2023-04-25T10:36:23;3.13;;;1.90;;
9115;SDS011;4593;53.652;10.168;2023-04-25T10:38:50;2.23;;;1.90;;
9115;SDS011;4593;53.652;10.168;2023-04-25T10:41:18;4.00;;;1.70;;
9115;SDS011;4593;53.652;10.168;2023-04-25T10:43:48;2.43;;;2.00;;
9115;SDS011;4593;53.652;10.168;2023-04-25T10:46:24;4.50;;;2.30;;
9115;SDS011;4593;53.652;10.168;2023-04-25T10:48:53;4.87;;;2.10;;
9115;SDS011;4593;53.652;10.168;2023-04-25T10:51:32;8.20;;;2.00;;
9115;SDS011;4593;53.652;10.168;2023-04-25T10:56:25;4.33;;;1.93;;
9115;SDS011;4593;53.652;10.168;2023-04-25T10:59:03;7.90;;;3.13;;
9115;SDS011;4593;53.652;10.168;2023-04-25T11:01:51;2.90;;;1.80;;
9115;SDS011;4593;53.652;10.168;2023-04-25T11:04:32;4.20;;;1.90;;
9115;SDS011;4593;53.652;10.168;2023-04-25T11:09:35;4.27;;;2.20;;
9115;SDS011;4593;53.652;10.168;2023-04-25T11:12:03;8.07;;;2.10;;
9115;SDS011;4593;53.652;10.168;2023-04-25T11:14:30;4.37;;;2.10;;
9115;SDS011;4593;53.652;10.168;2023-04-25T11:16:56;6.17;;;2.07;;
9115;SDS011;4593;53.652;10.168;2023-04-25T11:19:23;3.50;;;1.90;;
9115;SDS011;4593;53.652;10.168;2023-04-25T11:21:50;7.87;;;2.13;;
9115;SDS011;4593;53.652;10.168;2023-04-25T11:24:19;2.50;;;1.80;;
9115;SDS011;4593;53.652;10.168;2023-04-25T11:26:50;5.00;;;1.83;;
9115;SDS011;4593;53.652;10.168;2023-04-25T11:29:16;2.13;;;1.90;;
9115;SDS011;4593;53.652;10.168;2023-04-25T11:31:45;4.90;;;1.73;;
9115;SDS011;4593;53.652;10.168;2023-04-25T11:34:11;6.10;;;1.77;;
9115;SDS011;4593;53.652;10.168;2023-04-25T11:36:37;6.53;;;1.93;;
9115;SDS011;4593;53.652;10.168;2023-04-25T11:39:03;6.10;;;1.87;;
9115;SDS011;4593;53.652;10.168;2023-04-25T11:41:30;8.37;;;2.27;;
9115;SDS011;4593;53.652;10.168;2023-04-25T11:43:56;3.33;;;1.83;;
9115;SDS011;4593;53.652;10.168;2023-04-25T11:46:22;5.20;;;2.23;;
9115;SDS011;4593;53.652;10.168;2023-04-25T11:48:48;8.20;;;2.13;;
9115;SDS011;4593;53.652;10.168;2023-04-25T11:51:15;4.90;;;2.00;;
9115;SDS011;4593;53.652;10.168;2023-04-25T11:53:41;5.43;;;2.10;;
9115;SDS011;4593;53.652;10.168;2023-04-25T11:56:11;6.07;;;2.13;;
9115;SDS011;4593;53.652;10.168;2023-04-25T12:01:26;1.87;;;1.77;;
9115;SDS011;4593;53.652;10.168;2023-04-25T12:03:52;2.07;;;1.50;;
9115;SDS011;4593;53.652;10.168;2023-04-25T12:06:18;2.20;;;1.80;;
9115;SDS011;4593;53.652;10.168;2023-04-25T12:11:53;1.70;;;1.60;;
9115;SDS011;4593;53.652;10.168;2023-04-25T12:14:21;1.80;;;1.70;;
9115;SDS011;4593;53.652;10.168;2023-04-25T12:16:54;1.90;;;1.80;;
9115;SDS011;4593;53.652;10.168;2023-04-25T12:19:22;3.10;;;1.87;;
9115;SDS011;4593;53.652;10.168;2023-04-25T12:21:49;5.23;;;1.70;;
9115;SDS011;4593;53.652;10.168;2023-04-25T12:24:22;5.27;;;1.90;;
9115;SDS011;4593;53.652;10.168;2023-04-25T12:27:00;3.30;;;1.80;;
9115;SDS011;4593;53.652;10.168;2023-04-25T12:29:31;3.37;;;1.90;;
9115;SDS011;4593;53.652;10.168;2023-04-25T12:31:57;1.80;;;1.70;;
9115;SDS011;4593;53.652;10.168;2023-04-25T12:34:24;3.43;;;2.00;;
9115;SDS011;4593;53.652;10.168;2023-04-25T12:36:50;4.00;;;1.83;;
9115;SDS011;4593;53.652;10.168;2023-04-25T12:39:24;5.43;;;1.97;;
9115;SDS011;4593;53.652;10.168;2023-04-25T12:41:52;5.50;;;2.00;;
9115;SDS011;4593;53.652;10.168;2023-04-25T12:44:21;8.53;;;2.07;;
9115;SDS011;4593;53.652;10.168;2023-04-25T12:46:47;4.67;;;1.87;;
9115;SDS011;4593;53.652;10.168;2023-04-25T12:49:13;2.33;;;2.03;;
9115;SDS011;4593;53.652;10.168;2023-04-25T12:51:39;4.93;;;1.83;;
9115;SDS011;4593;53.652;10.168;2023-04-25T12:54:06;3.27;;;2.20;;
9115;SDS011;4593;53.652;10.168;2023-04-25T12:56:33;5.27;;;2.00;;
9115;SDS011;4593;53.652;10.168;2023-04-25T12:59:00;4.17;;;1.93;;
9115;SDS011;4593;53.652;10.168;2023-04-25T13:01:28;2.23;;;1.80;;
9115;SDS011;4593;53.652;10.168;2023-04-25T13:03:54;3.03;;;2.00;;
9115;SDS011;4593;53.652;10.168;2023-04-25T13:06:21;7.53;;;2.27;;
9115;SDS011;4593;53.652;10.168;2023-04-25T13:08:47;3.73;;;2.50;;
9115;SDS011;4593;53.652;10.168;2023-04-25T13:11:13;3.67;;;1.87;;
9115;SDS011;4593;53.652;10.168;2023-04-25T13:13:42;2.80;;;1.90;;
9115;SDS011;4593;53.652;10.168;2023-04-25T13:16:09;2.33;;;2.00;;
9115;SDS011;4593;53.652;10.168;2023-04-25T13:18:36;2.53;;;2.33;;
9115;SDS011;4593;53.652;10.168;2023-04-25T13:21:04;5.03;;;2.00;;
9115;SDS011;4593;53.652;10.168;2023-04-25T13:23:30;6.73;;;2.37;;
9115;SDS011;4593;53.652;10.168;2023-04-25T13:25:56;3.70;;;1.90;;
9115;SDS011;4593;53.652;10.168;2023-04-25T13:28:28;4.10;;;2.07;;
9115;SDS011;4593;53.652;10.168;2023-04-25T13:30:54;5.07;;;2.43;;
9115;SDS011;4593;53.652;10.168;2023-04-25T13:33:21;4.80;;;2.50;;
9115;SDS011;4593;53.652;10.168;2023-04-25T13:35:48;8.43;;;2.63;;
9115;SDS011;4593;53.652;10.168;2023-04-25T13:38:22;6.00;;;2.07;;
9115;SDS011;4593;53.652;10.168;2023-04-25T13:40:49;7.73;;;2.17;;
9115;SDS011;4593;53.652;10.168;2023-04-25T13:43:18;11.53;;;2.03;;
9115;SDS011;4593;53.652;10.168;2023-04-25T13:45:45;3.30;;;2.17;;
9115;SDS011;4593;53.652;10.168;2023-04-25T13:48:11;8.00;;;2.03;;
9115;SDS011;4593;53.652;10.168;2023-04-25T13:50:36;2.23;;;1.90;;
9115;SDS011;4593;53.652;10.168;2023-04-25T13:53:02;2.83;;;2.07;;
9115;SDS011;4593;53.652;10.168;2023-04-25T13:55:28;3.60;;;2.27;;
9115;SDS011;4593;53.652;10.168;2023-04-25T13:57:53;3.33;;;2.03;;
9115;SDS011;4593;53.652;10.168;2023-04-25T14:00:19;6.07;;;1.93;;
9115;SDS011;4593;53.652;10.168;2023-04-25T14:02:48;7.00;;;2.50;;
9115;SDS011;4593;53.652;10.168;2023-04-25T14:05:14;1.90;;;1.80;;
9115;SDS011;4593;53.652;10.168;2023-04-25T14:07:40;5.20;;;2.10;;
9115;SDS011;4593;53.652;10.168;2023-04-25T14:10:06;5.60;;;2.10;;
9115;SDS011;4593;53.652;10.168;2023-04-25T14:12:32;5.67;;;2.70;;
9115;SDS011;4593;53.652;10.168;2023-04-25T14:14:58;3.73;;;2.20;;
9115;SDS011;4593;53.652;10.168;2023-04-25T14:17:24;6.30;;;2.20;;
9115;SDS011;4593;53.652;10.168;2023-04-25T14:19:50;2.70;;;2.07;;
9115;SDS011;4593;53.652;10.168;2023-04-25T14:22:16;4.00;;;2.30;;
9115;SDS011;4593;53.652;10.168;2023-04-25T14:24:42;5.97;;;2.10;;
9115;SDS011;4593;53.652;10.168;2023-04-25T14:27:08;4.33;;;2.33;;
9115;SDS011;4593;53.652;10.168;2023-04-25T14:29:34;3.73;;;1.93;;
9115;SDS011;4593;53.652;10.168;2023-04-25T14:32:00;3.73;;;2.20;;
9115;SDS011;4593;53.652;10.168;2023-04-25T14:34:27;5.43;;;2.43;;
9115;SDS011;4593;53.652;10.168;2023-04-25T14:36:53;5.43;;;2.30;;
9115;SDS011;4593;53.652;10.168;2023-04-25T14:39:20;4.80;;;2.10;;
9115;SDS011;4593;53.652;10.168;2023-04-25T14:41:46;4.47;;;2.17;;
9115;SDS011;4593;53.652;10.168;2023-04-25T14:44:12;4.83;;;2.00;;
9115;SDS011;4593;53.652;10.168;2023-04-25T14:46:37;2.60;;;1.80;;
9115;SDS011;4593;53.652;10.168;2023-04-25T14:49:03;6.93;;;2.23;;
9115;SDS011;4593;53.652;10.168;2023-04-25T14:51:29;3.17;;;2.17;;
9115;SDS011;4593;53.652;10.168;2023-04-25T14:53:56;6.90;;;2.23;;
9115;SDS011;4593;53.652;10.168;2023-04-25T14:56:22;3.47;;;2.03;;
9115;SDS011;4593;53.652;10.168;2023-04-25T14:58:47;2.63;;;2.00;;
9115;SDS011;4593;53.652;10.168;2023-04-25T15:01:13;4.80;;;1.80;;
9115;SDS011;4593;53.652;10.168;2023-04-25T15:03:39;3.63;;;2.20;;
9115;SDS011;4593;53.652;10.168;2023-04-25T15:06:05;7.13;;;2.07;;
9115;SDS011;4593;53.652;10.168;2023-04-25T15:08:31;9.83;;;2.00;;
9115;SDS011;4593;53.652;10.168;2023-04-25T15:10:58;6.13;;;1.90;;
9115;SDS011;4593;53.652;10.168;2023-04-25T15:13:25;4.00;;;2.13;;
9115;SDS011;4593;53.652;10.168;2023-04-25T15:15:51;4.23;;;2.03;;